This is the latest recevied weather packets stored in our database for station/object DL8FX-6. If no packets are shown the sender has not sent any weather packets the latest 10 day(s).
| Time | Temp. | Humidity | Pressure | Rain* | Wind** | Luminosity | Snow |
|---|---|---|---|---|---|---|---|
| 1777789874 | 22.22° C | 41% | 1011.1 hPa | 0 mm | - | - | - |
| 1777788667 | 21.11° C | 42% | 1011.1 hPa | 0 mm | - | - | - |
| 1777784459 | 12.78° C | 81% | 1011.3 hPa | 0 mm | - | - | - |
| 1777781418 | 9.44° C | 81% | 1011.2 hPa | 0 mm | - | - | - |
| 1777778458 | 9.44° C | 82% | 1011.3 hPa | 0 mm | - | - | - |
| 1777771816 | 10.56° C | 78% | 1011.7 hPa | 0 mm | - | - | - |
| 1777765837 | 11.11° C | 78% | 1012.3 hPa | 0 mm | - | - | - |
| 1777764628 | 11.11° C | 79% | 1012.5 hPa | 0 mm | - | - | - |
| 1777764024 | 11.11° C | 79% | 1012.5 hPa | 0 mm | - | - | - |
| 1777759253 | 11.67° C | 75% | 1012.9 hPa | 0 mm | - | - | - |
| 1777758649 | 11.67° C | 75% | 1013 hPa | 0 mm | - | - | - |
| 1777756858 | 12.22° C | 72% | 1013.3 hPa | 0 mm | - | - | - |
| 1777754422 | 13.33° C | 67% | 1013.5 hPa | 0 mm | - | - | - |
| 1777752689 | 14.44° C | 64% | 1013.7 hPa | 0 mm | - | - | - |
| 1777746630 | 20° C | 44% | 1013.8 hPa | 0 mm | - | - | - |
| 1777745441 | 22.22° C | 29% | 1013.7 hPa | 0 mm | - | - | - |
| 1777741859 | 26.67° C | 22% | 1013.9 hPa | 0 mm | - | - | - |
| 1777737631 | 27.22° C | 23% | 1014.5 hPa | 0 mm | - | - | - |
| 1777737047 | 27.22° C | 23% | 1014.5 hPa | 0 mm | - | - | - |
| 1777736424 | 26.67° C | 23% | 1014.7 hPa | 0 mm | - | - | - |
| 1777734672 | 28.33° C | 20% | 1015.1 hPa | 0 mm | - | - | - |
| 1777732256 | 28.33° C | 20% | 1015.8 hPa | 0 mm | - | - | - |
| 1777731652 | 28.33° C | 20% | 1015.9 hPa | 0 mm | - | - | - |
| 1777731068 | 28.33° C | 20% | 1016.1 hPa | 0 mm | - | - | - |
| 1777728632 | 28.33° C | 21% | 1016.6 hPa | 0 mm | - | - | - |
* Rain latest hour (hover to see other rain measurements)
** Current wind speed in m/s (hover to see current wind gust speed)